Port Aransas, TX (78373)

9:11 AM CDT on March 23, 2017 (GMT -0500)
AB5KT - Island RV Resort | | Change Station
Active Advisory: Wind Advisory

Elev 10 ft 27.83 °N, 97.07 °W | Updated 3 seconds ago

Clear
Clear
73.2 °F
Feels Like 73 °F
N
8.9
Wind Variable Wind from SE
Gusts 13.0 mph

Today
High -- | Low -- °F
--% Chance of Precip.
Yesterday
High -- | Low -- °F
Precip. -- in
Pressure 30.10 in
Visibility 10.0 miles
Clouds Clear
Heat Index 73 °F
Dew Point 67 °F
Humidity 81%
Rainfall 0.00 in
Snow Depth Not available.
7:28 AM 7:41 PM
Waning Crescent, 23% visible
METAR KRAS 231355Z AUTO 15009KT 10SM CLR 22/19 A3010 RMK AO2 T02190188
Pressure 30.10 in
Visibility 10.0 miles
Clouds Clear
Heat Index 73 °F
Dew Point 67 °F
Humidity 81%
Rainfall 0.00 in
Snow Depth Not available.
7:28 AM 7:41 PM
Waning Crescent, 23% visible
METAR KRAS 231355Z AUTO 15009KT 10SM CLR 22/19 A3010 RMK AO2 T02190188

Get Your Daily Forecast Email!

Thanks for signing up!

Be on the lookout for a verification email in your inbox.

You'll start receiving severe weather alerts in your inbox..

×

10-Day Weather Forecast

Almanac

Astronomy

Mar. 23, 2017 Rise Set
Actual Time
Civil Twilight
Nautical Twilight
Astronomical Twilight
Moon
Length of Visible Light
Length of Day
Tomorrow will be .
, % of the Moon is Illuminated

Today's Extremes

State Highs State Lows

Community

WunderPhotos

Upload Photos

1,962,540 photos uploaded!

WunderBlog® & News

Nearby

Air Quality

  Air Quality AQ Index Pollutant
Not available.

Snow Depth

Station Depth Elevation

Earthquake Activity

City Distance Mag. Time & Date
Minimum magnitude displayed is 2.5.

Earthquake Activity

City Distance Mag. Time & Date
Minimum magnitude displayed is 2.5.

Coastal Water Temperatures

Place Temperature

Stations

Nearby Weather Stations

Station Location Temp. Windchill Dew Point Humidity Wind Precip. Elev Updated Type
                   

Watches & Warnings

Wind Advisory
Issued: 3:24 AM CDT Mar. 23, 2017 – National Weather Service

... Wind Advisory in effect from noon today to 6 PM CDT this
evening...

The National Weather Service in Corpus Christi has issued a Wind
Advisory, which is in effect from noon today to 6 PM CDT this
evening.

* Timing... through the afternoon hours.

* Winds... south to southeast winds 25 to 35 mph with gusts around
40 mph.

* Impacts... driving high profile vehicles may become difficult,
especially over area bridges and elevated roadways. Strong
winds may displace loose objects and could result in minor
property damage.

Precautionary/preparedness actions...

A Wind Advisory means that sustained winds of 30 mph or greater...
or wind gusts around 40 mph or greater are expected. Winds this
strong can make driving difficult... especially for high profile
vehicles. Use extra caution.



Tmt